sensor_id;sensor_type;location;lat;lon;timestamp;temperature;humidity
7498;DHT22;3790;48.806;9.140;2023-10-08T00:03:22;15.70;99.90
7498;DHT22;3790;48.806;9.140;2023-10-08T00:08:22;15.80;99.90
7498;DHT22;3790;48.806;9.140;2023-10-08T00:13:23;15.90;99.90
7498;DHT22;3790;48.806;9.140;2023-10-08T00:18:23;16.00;99.90
7498;DHT22;3790;48.806;9.140;2023-10-08T00:23:24;16.00;99.90
7498;DHT22;3790;48.806;9.140;2023-10-08T00:28:27;16.00;99.90
7498;DHT22;3790;48.806;9.140;2023-10-08T00:33:28;15.90;99.90
7498;DHT22;3790;48.806;9.140;2023-10-08T00:38:30;15.90;99.90
7498;DHT22;3790;48.806;9.140;2023-10-08T00:43:33;16.00;99.90
7498;DHT22;3790;48.806;9.140;2023-10-08T00:48:35;16.00;99.90
7498;DHT22;3790;48.806;9.140;2023-10-08T00:53:36;16.10;99.90
7498;DHT22;3790;48.806;9.140;2023-10-08T00:58:41;16.20;99.90
7498;DHT22;3790;48.806;9.140;2023-10-08T01:03:42;16.20;99.90
7498;DHT22;3790;48.806;9.140;2023-10-08T01:08:46;16.20;99.90
7498;DHT22;3790;48.806;9.140;2023-10-08T01:13:52;16.10;99.90
7498;DHT22;3790;48.806;9.140;2023-10-08T01:18:55;16.20;99.90
7498;DHT22;3790;48.806;9.140;2023-10-08T01:23:55;16.20;99.90
7498;DHT22;3790;48.806;9.140;2023-10-08T01:28:56;16.20;99.90
7498;DHT22;3790;48.806;9.140;2023-10-08T01:33:56;16.00;99.90
7498;DHT22;3790;48.806;9.140;2023-10-08T01:38:57;15.90;99.90
7498;DHT22;3790;48.806;9.140;2023-10-08T01:43:58;15.50;99.90
7498;DHT22;3790;48.806;9.140;2023-10-08T01:48:59;15.30;99.90
7498;DHT22;3790;48.806;9.140;2023-10-08T01:54:13;15.40;99.90
7498;DHT22;3790;48.806;9.140;2023-10-08T01:59:18;15.50;99.90
7498;DHT22;3790;48.806;9.140;2023-10-08T02:04:18;15.50;99.90
7498;DHT22;3790;48.806;9.140;2023-10-08T02:09:19;15.30;99.90
7498;DHT22;3790;48.806;9.140;2023-10-08T02:14:26;15.10;99.90
7498;DHT22;3790;48.806;9.140;2023-10-08T02:19:32;15.10;99.90
7498;DHT22;3790;48.806;9.140;2023-10-08T02:24:33;15.10;99.90
7498;DHT22;3790;48.806;9.140;2023-10-08T02:29:33;15.00;99.90
7498;DHT22;3790;48.806;9.140;2023-10-08T02:34:34;15.00;99.90
7498;DHT22;3790;48.806;9.140;2023-10-08T02:39:35;15.10;99.90
7498;DHT22;3790;48.806;9.140;2023-10-08T02:44:36;14.70;99.90
7498;DHT22;3790;48.806;9.140;2023-10-08T02:49:42;14.30;99.90
7498;DHT22;3790;48.806;9.140;2023-10-08T02:54:42;14.50;99.90
7498;DHT22;3790;48.806;9.140;2023-10-08T02:59:43;14.60;99.90
7498;DHT22;3790;48.806;9.140;2023-10-08T03:04:46;14.50;99.90
7498;DHT22;3790;48.806;9.140;2023-10-08T03:09:47;14.60;99.90
7498;DHT22;3790;48.806;9.140;2023-10-08T03:14:50;14.70;99.90
7498;DHT22;3790;48.806;9.140;2023-10-08T03:20:01;14.60;99.90
7498;DHT22;3790;48.806;9.140;2023-10-08T03:25:22;14.70;99.90
7498;DHT22;3790;48.806;9.140;2023-10-08T03:30:24;14.90;99.90
7498;DHT22;3790;48.806;9.140;2023-10-08T03:35:27;14.80;99.90
7498;DHT22;3790;48.806;9.140;2023-10-08T03:40:39;14.80;99.90
7498;DHT22;3790;48.806;9.140;2023-10-08T03:45:43;14.60;99.90
7498;DHT22;3790;48.806;9.140;2023-10-08T03:51:03;14.50;99.90
7498;DHT22;3790;48.806;9.140;2023-10-08T03:56:07;14.40;99.90
7498;DHT22;3790;48.806;9.140;2023-10-08T04:01:07;14.40;99.90
7498;DHT22;3790;48.806;9.140;2023-10-08T04:06:15;13.90;99.90
7498;DHT22;3790;48.806;9.140;2023-10-08T04:11:16;13.50;99.90
7498;DHT22;3790;48.806;9.140;2023-10-08T04:16:32;13.30;99.90
7498;DHT22;3790;48.806;9.140;2023-10-08T04:21:38;13.50;99.90
7498;DHT22;3790;48.806;9.140;2023-10-08T04:26:43;13.40;99.90
7498;DHT22;3790;48.806;9.140;2023-10-08T04:31:44;13.50;99.90
7498;DHT22;3790;48.806;9.140;2023-10-08T04:36:45;14.00;99.90
7498;DHT22;3790;48.806;9.140;2023-10-08T04:41:46;14.40;99.90
7498;DHT22;3790;48.806;9.140;2023-10-08T04:46:48;14.70;99.90
7498;DHT22;3790;48.806;9.140;2023-10-08T04:52:04;14.70;99.90
7498;DHT22;3790;48.806;9.140;2023-10-08T04:57:14;14.30;99.90
7498;DHT22;3790;48.806;9.140;2023-10-08T05:02:18;13.90;99.90
7498;DHT22;3790;48.806;9.140;2023-10-08T05:07:25;13.90;99.90
7498;DHT22;3790;48.806;9.140;2023-10-08T05:13:00;13.90;99.90
7498;DHT22;3790;48.806;9.140;2023-10-08T05:18:04;13.40;99.90
7498;DHT22;3790;48.806;9.140;2023-10-08T05:23:24;13.50;99.90
7498;DHT22;3790;48.806;9.140;2023-10-08T05:28:25;13.60;99.90
7498;DHT22;3790;48.806;9.140;2023-10-08T05:33:26;13.70;99.90
7498;DHT22;3790;48.806;9.140;2023-10-08T05:38:28;13.80;99.90
7498;DHT22;3790;48.806;9.140;2023-10-08T05:43:36;13.90;99.90
7498;DHT22;3790;48.806;9.140;2023-10-08T05:48:40;13.80;99.90
7498;DHT22;3790;48.806;9.140;2023-10-08T05:53:51;14.00;99.90
7498;DHT22;3790;48.806;9.140;2023-10-08T05:58:56;14.20;99.90
7498;DHT22;3790;48.806;9.140;2023-10-08T06:04:18;14.10;99.90
7498;DHT22;3790;48.806;9.140;2023-10-08T06:09:31;14.20;99.90
7498;DHT22;3790;48.806;9.140;2023-10-08T06:14:40;14.30;99.90
7498;DHT22;3790;48.806;9.140;2023-10-08T06:19:59;14.30;99.90
7498;DHT22;3790;48.806;9.140;2023-10-08T06:25:16;14.30;99.90
7498;DHT22;3790;48.806;9.140;2023-10-08T06:30:18;14.30;99.90
7498;DHT22;3790;48.806;9.140;2023-10-08T06:35:19;14.40;99.90
7498;DHT22;3790;48.806;9.140;2023-10-08T06:40:22;14.40;99.90
7498;DHT22;3790;48.806;9.140;2023-10-08T06:45:39;14.40;99.90
7498;DHT22;3790;48.806;9.140;2023-10-08T06:50:39;14.60;99.90
7498;DHT22;3790;48.806;9.140;2023-10-08T06:55:41;14.60;99.90
7498;DHT22;3790;48.806;9.140;2023-10-08T07:00:42;14.70;99.90
7498;DHT22;3790;48.806;9.140;2023-10-08T07:05:50;14.90;99.90
7498;DHT22;3790;48.806;9.140;2023-10-08T07:11:03;15.00;99.90
7498;DHT22;3790;48.806;9.140;2023-10-08T07:16:11;14.90;99.90
7498;DHT22;3790;48.806;9.140;2023-10-08T07:21:12;14.60;99.90
7498;DHT22;3790;48.806;9.140;2023-10-08T07:26:12;14.60;99.90
7498;DHT22;3790;48.806;9.140;2023-10-08T07:31:22;15.10;99.90
7498;DHT22;3790;48.806;9.140;2023-10-08T07:36:24;15.60;99.90
7498;DHT22;3790;48.806;9.140;2023-10-08T07:41:24;15.80;99.90
7498;DHT22;3790;48.806;9.140;2023-10-08T07:46:26;16.00;99.90
7498;DHT22;3790;48.806;9.140;2023-10-08T07:51:26;16.40;99.90
7498;DHT22;3790;48.806;9.140;2023-10-08T07:56:27;16.60;99.90
7498;DHT22;3790;48.806;9.140;2023-10-08T08:01:28;16.80;99.90
7498;DHT22;3790;48.806;9.140;2023-10-08T08:06:28;17.20;99.90
7498;DHT22;3790;48.806;9.140;2023-10-08T08:11:31;17.40;99.90
7498;DHT22;3790;48.806;9.140;2023-10-08T08:16:31;17.50;99.90
7498;DHT22;3790;48.806;9.140;2023-10-08T08:21:32;17.60;99.90
7498;DHT22;3790;48.806;9.140;2023-10-08T08:26:32;17.70;99.90
7498;DHT22;3790;48.806;9.140;2023-10-08T08:31:39;17.60;99.90
7498;DHT22;3790;48.806;9.140;2023-10-08T08:36:43;17.50;99.90
7498;DHT22;3790;48.806;9.140;2023-10-08T08:41:50;17.50;99.90
7498;DHT22;3790;48.806;9.140;2023-10-08T08:46:53;17.70;99.90
7498;DHT22;3790;48.806;9.140;2023-10-08T08:51:54;18.00;99.90
7498;DHT22;3790;48.806;9.140;2023-10-08T08:56:57;18.20;99.90
7498;DHT22;3790;48.806;9.140;2023-10-08T09:02:00;18.40;99.90
7498;DHT22;3790;48.806;9.140;2023-10-08T09:07:01;18.70;99.90
7498;DHT22;3790;48.806;9.140;2023-10-08T09:12:05;18.90;99.90
7498;DHT22;3790;48.806;9.140;2023-10-08T09:17:08;18.90;99.90
7498;DHT22;3790;48.806;9.140;2023-10-08T09:22:12;19.10;99.90
7498;DHT22;3790;48.806;9.140;2023-10-08T09:27:12;19.20;99.90
7498;DHT22;3790;48.806;9.140;2023-10-08T09:32:14;19.30;99.90
7498;DHT22;3790;48.806;9.140;2023-10-08T09:37:23;19.40;99.90
7498;DHT22;3790;48.806;9.140;2023-10-08T09:42:24;19.70;99.90
7498;DHT22;3790;48.806;9.140;2023-10-08T09:47:27;20.10;99.90
7498;DHT22;3790;48.806;9.140;2023-10-08T09:52:35;20.50;99.90
7498;DHT22;3790;48.806;9.140;2023-10-08T09:57:37;21.20;99.90
7498;DHT22;3790;48.806;9.140;2023-10-08T10:02:38;21.50;99.90
7498;DHT22;3790;48.806;9.140;2023-10-08T10:07:40;21.90;99.90
7498;DHT22;3790;48.806;9.140;2023-10-08T10:12:43;22.00;99.90
7498;DHT22;3790;48.806;9.140;2023-10-08T10:17:47;22.30;99.90
7498;DHT22;3790;48.806;9.140;2023-10-08T10:22:47;22.50;99.90
7498;DHT22;3790;48.806;9.140;2023-10-08T10:32:54;23.00;99.90
7498;DHT22;3790;48.806;9.140;2023-10-08T10:37:56;23.20;99.90
7498;DHT22;3790;48.806;9.140;2023-10-08T10:43:03;23.10;99.90
7498;DHT22;3790;48.806;9.140;2023-10-08T10:48:07;23.10;99.90
7498;DHT22;3790;48.806;9.140;2023-10-08T10:53:19;23.20;99.90
7498;DHT22;3790;48.806;9.140;2023-10-08T10:58:20;23.20;99.90
7498;DHT22;3790;48.806;9.140;2023-10-08T11:03:24;23.10;99.90
7498;DHT22;3790;48.806;9.140;2023-10-08T11:08:26;23.20;99.90
7498;DHT22;3790;48.806;9.140;2023-10-08T11:13:34;23.20;99.90
7498;DHT22;3790;48.806;9.140;2023-10-08T11:18:45;23.00;99.90
7498;DHT22;3790;48.806;9.140;2023-10-08T11:23:52;22.80;99.90
7498;DHT22;3790;48.806;9.140;2023-10-08T11:28:53;22.80;99.90
7498;DHT22;3790;48.806;9.140;2023-10-08T11:33:59;23.00;99.90
7498;DHT22;3790;48.806;9.140;2023-10-08T11:39:10;23.10;99.90
7498;DHT22;3790;48.806;9.140;2023-10-08T11:44:13;23.50;99.90
7498;DHT22;3790;48.806;9.140;2023-10-08T11:49:19;24.00;99.90
7498;DHT22;3790;48.806;9.140;2023-10-08T11:54:25;24.30;99.90
7498;DHT22;3790;48.806;9.140;2023-10-08T11:59:27;24.50;99.90
7498;DHT22;3790;48.806;9.140;2023-10-08T12:04:30;24.10;99.90
7498;DHT22;3790;48.806;9.140;2023-10-08T12:09:30;24.40;99.90
7498;DHT22;3790;48.806;9.140;2023-10-08T12:14:31;24.60;99.90
7498;DHT22;3790;48.806;9.140;2023-10-08T12:19:31;24.20;99.90
7498;DHT22;3790;48.806;9.140;2023-10-08T12:24:32;24.60;99.90
7498;DHT22;3790;48.806;9.140;2023-10-08T12:29:34;24.90;99.30
7498;DHT22;3790;48.806;9.140;2023-10-08T12:34:35;25.10;99.70
7498;DHT22;3790;48.806;9.140;2023-10-08T12:39:36;25.50;98.70
7498;DHT22;3790;48.806;9.140;2023-10-08T12:44:51;24.90;98.30
7498;DHT22;3790;48.806;9.140;2023-10-08T12:49:52;25.00;98.70
7498;DHT22;3790;48.806;9.140;2023-10-08T12:54:54;24.80;98.20
7498;DHT22;3790;48.806;9.140;2023-10-08T12:59:58;24.90;97.40
7498;DHT22;3790;48.806;9.140;2023-10-08T13:04:59;25.00;96.40
7498;DHT22;3790;48.806;9.140;2023-10-08T13:10:00;24.90;96.50
7498;DHT22;3790;48.806;9.140;2023-10-08T13:15:00;25.00;95.90
7498;DHT22;3790;48.806;9.140;2023-10-08T13:20:06;25.10;95.50
7498;DHT22;3790;48.806;9.140;2023-10-08T13:25:12;25.50;95.80
7498;DHT22;3790;48.806;9.140;2023-10-08T13:30:12;25.80;95.20
7498;DHT22;3790;48.806;9.140;2023-10-08T13:35:13;26.10;94.50
7498;DHT22;3790;48.806;9.140;2023-10-08T13:40:14;26.30;93.30
7498;DHT22;3790;48.806;9.140;2023-10-08T13:45:16;26.30;93.30
7498;DHT22;3790;48.806;9.140;2023-10-08T13:50:26;26.10;92.40
7498;DHT22;3790;48.806;9.140;2023-10-08T13:55:30;26.10;93.30
7498;DHT22;3790;48.806;9.140;2023-10-08T14:00:31;26.10;93.20
7498;DHT22;3790;48.806;9.140;2023-10-08T14:05:36;26.00;93.20
7498;DHT22;3790;48.806;9.140;2023-10-08T14:10:38;25.80;94.10
7498;DHT22;3790;48.806;9.140;2023-10-08T14:15:38;26.10;93.30
7498;DHT22;3790;48.806;9.140;2023-10-08T14:20:44;26.00;93.60
7498;DHT22;3790;48.806;9.140;2023-10-08T14:25:47;26.00;92.30
7498;DHT22;3790;48.806;9.140;2023-10-08T14:30:49;25.70;93.40
7498;DHT22;3790;48.806;9.140;2023-10-08T14:35:56;25.50;93.70
7498;DHT22;3790;48.806;9.140;2023-10-08T14:41:15;25.50;93.30
7498;DHT22;3790;48.806;9.140;2023-10-08T14:46:34;25.20;93.10
7498;DHT22;3790;48.806;9.140;2023-10-08T14:51:38;25.30;93.60
7498;DHT22;3790;48.806;9.140;2023-10-08T14:56:40;25.20;94.10
7498;DHT22;3790;48.806;9.140;2023-10-08T15:01:41;25.20;93.60
7498;DHT22;3790;48.806;9.140;2023-10-08T15:06:42;24.60;94.40
7498;DHT22;3790;48.806;9.140;2023-10-08T15:11:44;24.70;95.20
7498;DHT22;3790;48.806;9.140;2023-10-08T15:16:46;24.60;95.60
7498;DHT22;3790;48.806;9.140;2023-10-08T15:21:52;24.40;96.20
7498;DHT22;3790;48.806;9.140;2023-10-08T15:26:54;24.50;97.10
7498;DHT22;3790;48.806;9.140;2023-10-08T15:31:55;24.60;97.50
7498;DHT22;3790;48.806;9.140;2023-10-08T15:36:55;24.10;97.30
7498;DHT22;3790;48.806;9.140;2023-10-08T15:41:57;23.80;97.60
7498;DHT22;3790;48.806;9.140;2023-10-08T15:46:57;23.80;98.20
7498;DHT22;3790;48.806;9.140;2023-10-08T15:51:58;23.50;98.50
7498;DHT22;3790;48.806;9.140;2023-10-08T15:56:58;23.30;98.90
7498;DHT22;3790;48.806;9.140;2023-10-08T16:01:59;23.10;99.00
7498;DHT22;3790;48.806;9.140;2023-10-08T16:07:00;23.10;99.10
7498;DHT22;3790;48.806;9.140;2023-10-08T16:12:00;23.00;99.80
7498;DHT22;3790;48.806;9.140;2023-10-08T16:17:01;23.10;99.50
7498;DHT22;3790;48.806;9.140;2023-10-08T16:22:04;22.90;99.70
7498;DHT22;3790;48.806;9.140;2023-10-08T16:27:05;22.70;99.90
7498;DHT22;3790;48.806;9.140;2023-10-08T16:32:07;22.40;99.90
7498;DHT22;3790;48.806;9.140;2023-10-08T16:37:08;22.00;99.90
7498;DHT22;3790;48.806;9.140;2023-10-08T16:42:08;21.60;99.90
7498;DHT22;3790;48.806;9.140;2023-10-08T16:47:09;21.00;99.90
7498;DHT22;3790;48.806;9.140;2023-10-08T16:52:11;20.40;99.90
7498;DHT22;3790;48.806;9.140;2023-10-08T16:57:12;20.00;99.90
7498;DHT22;3790;48.806;9.140;2023-10-08T17:02:13;19.90;99.90
7498;DHT22;3790;48.806;9.140;2023-10-08T17:07:14;19.50;99.90
7498;DHT22;3790;48.806;9.140;2023-10-08T17:12:16;19.40;99.90
7498;DHT22;3790;48.806;9.140;2023-10-08T17:17:20;19.20;99.90
7498;DHT22;3790;48.806;9.140;2023-10-08T17:22:20;19.00;99.90
7498;DHT22;3790;48.806;9.140;2023-10-08T17:27:21;18.90;99.90
7498;DHT22;3790;48.806;9.140;2023-10-08T17:32:21;18.80;99.90
7498;DHT22;3790;48.806;9.140;2023-10-08T17:37:22;18.70;99.90
7498;DHT22;3790;48.806;9.140;2023-10-08T17:42:24;18.60;99.90
7498;DHT22;3790;48.806;9.140;2023-10-08T17:47:24;18.60;99.90
7498;DHT22;3790;48.806;9.140;2023-10-08T17:52:28;18.90;99.90
7498;DHT22;3790;48.806;9.140;2023-10-08T17:57:29;19.10;99.90
7498;DHT22;3790;48.806;9.140;2023-10-08T18:02:30;19.10;99.90
7498;DHT22;3790;48.806;9.140;2023-10-08T18:07:32;19.00;99.90
7498;DHT22;3790;48.806;9.140;2023-10-08T18:12:32;18.90;99.90
7498;DHT22;3790;48.806;9.140;2023-10-08T18:17:33;19.00;99.90
7498;DHT22;3790;48.806;9.140;2023-10-08T18:22:33;18.70;99.90
7498;DHT22;3790;48.806;9.140;2023-10-08T18:27:37;18.50;99.90
7498;DHT22;3790;48.806;9.140;2023-10-08T18:32:40;18.60;99.90
7498;DHT22;3790;48.806;9.140;2023-10-08T18:37:41;18.80;99.90
7498;DHT22;3790;48.806;9.140;2023-10-08T18:42:42;18.80;99.90
7498;DHT22;3790;48.806;9.140;2023-10-08T18:47:51;18.80;99.90
7498;DHT22;3790;48.806;9.140;2023-10-08T18:52:52;18.70;99.90
7498;DHT22;3790;48.806;9.140;2023-10-08T18:57:52;18.70;99.90
7498;DHT22;3790;48.806;9.140;2023-10-08T19:02:53;18.60;99.90
7498;DHT22;3790;48.806;9.140;2023-10-08T19:07:55;18.50;99.90
7498;DHT22;3790;48.806;9.140;2023-10-08T19:12:56;18.40;99.90
7498;DHT22;3790;48.806;9.140;2023-10-08T19:17:59;18.30;99.90
7498;DHT22;3790;48.806;9.140;2023-10-08T19:23:04;18.50;99.90
7498;DHT22;3790;48.806;9.140;2023-10-08T19:28:08;18.60;99.90
7498;DHT22;3790;48.806;9.140;2023-10-08T19:33:11;18.70;99.90
7498;DHT22;3790;48.806;9.140;2023-10-08T19:38:16;18.40;99.90
7498;DHT22;3790;48.806;9.140;2023-10-08T19:43:17;18.20;99.90
7498;DHT22;3790;48.806;9.140;2023-10-08T19:48:18;18.00;99.90
7498;DHT22;3790;48.806;9.140;2023-10-08T19:53:21;17.90;99.90
7498;DHT22;3790;48.806;9.140;2023-10-08T19:58:22;17.60;99.90
7498;DHT22;3790;48.806;9.140;2023-10-08T20:03:22;17.50;99.90
7498;DHT22;3790;48.806;9.140;2023-10-08T20:08:23;17.40;99.90
7498;DHT22;3790;48.806;9.140;2023-10-08T20:13:23;17.20;99.90
7498;DHT22;3790;48.806;9.140;2023-10-08T20:18:24;17.20;99.90
7498;DHT22;3790;48.806;9.140;2023-10-08T20:23:25;17.20;99.90
7498;DHT22;3790;48.806;9.140;2023-10-08T20:28:29;17.00;99.90
7498;DHT22;3790;48.806;9.140;2023-10-08T20:33:30;16.80;99.90
7498;DHT22;3790;48.806;9.140;2023-10-08T20:38:30;16.90;99.90
7498;DHT22;3790;48.806;9.140;2023-10-08T20:43:32;17.00;99.90
7498;DHT22;3790;48.806;9.140;2023-10-08T20:48:33;16.90;99.90
7498;DHT22;3790;48.806;9.140;2023-10-08T20:53:34;16.70;99.90
7498;DHT22;3790;48.806;9.140;2023-10-08T20:58:35;16.50;99.90
7498;DHT22;3790;48.806;9.140;2023-10-08T21:03:36;16.40;99.90
7498;DHT22;3790;48.806;9.140;2023-10-08T21:08:39;16.40;99.90
7498;DHT22;3790;48.806;9.140;2023-10-08T21:13:42;16.50;99.90
7498;DHT22;3790;48.806;9.140;2023-10-08T21:18:43;16.90;99.90
7498;DHT22;3790;48.806;9.140;2023-10-08T21:23:44;17.00;99.90
7498;DHT22;3790;48.806;9.140;2023-10-08T21:28:44;16.90;99.90
7498;DHT22;3790;48.806;9.140;2023-10-08T21:33:45;16.90;99.90
7498;DHT22;3790;48.806;9.140;2023-10-08T21:38:49;16.70;99.90
7498;DHT22;3790;48.806;9.140;2023-10-08T21:43:50;16.50;99.90
7498;DHT22;3790;48.806;9.140;2023-10-08T21:48:50;16.30;99.90
7498;DHT22;3790;48.806;9.140;2023-10-08T21:53:51;16.10;99.90
7498;DHT22;3790;48.806;9.140;2023-10-08T21:58:51;16.10;99.90
7498;DHT22;3790;48.806;9.140;2023-10-08T22:03:53;16.20;99.90
7498;DHT22;3790;48.806;9.140;2023-10-08T22:08:55;16.10;99.90
7498;DHT22;3790;48.806;9.140;2023-10-08T22:13:56;15.90;99.90
7498;DHT22;3790;48.806;9.140;2023-10-08T22:18:57;15.70;99.90
7498;DHT22;3790;48.806;9.140;2023-10-08T22:23:57;15.50;99.90
7498;DHT22;3790;48.806;9.140;2023-10-08T22:28:59;15.30;99.90
7498;DHT22;3790;48.806;9.140;2023-10-08T22:34:01;15.20;99.90
7498;DHT22;3790;48.806;9.140;2023-10-08T22:39:16;15.20;99.90
7498;DHT22;3790;48.806;9.140;2023-10-08T22:44:24;15.20;99.90
7498;DHT22;3790;48.806;9.140;2023-10-08T22:49:29;15.30;99.90
7498;DHT22;3790;48.806;9.140;2023-10-08T22:54:33;15.40;99.90
7498;DHT22;3790;48.806;9.140;2023-10-08T22:59:33;15.30;99.90
7498;DHT22;3790;48.806;9.140;2023-10-08T23:04:36;15.10;99.90
7498;DHT22;3790;48.806;9.140;2023-10-08T23:09:37;15.00;99.90
7498;DHT22;3790;48.806;9.140;2023-10-08T23:14:37;15.10;99.90
7498;DHT22;3790;48.806;9.140;2023-10-08T23:19:38;15.20;99.90
7498;DHT22;3790;48.806;9.140;2023-10-08T23:24:39;15.00;99.90
7498;DHT22;3790;48.806;9.140;2023-10-08T23:29:43;15.20;99.90
7498;DHT22;3790;48.806;9.140;2023-10-08T23:34:43;15.30;99.90
7498;DHT22;3790;48.806;9.140;2023-10-08T23:39:44;15.20;99.90
7498;DHT22;3790;48.806;9.140;2023-10-08T23:44:45;15.20;99.90
7498;DHT22;3790;48.806;9.140;2023-10-08T23:49:48;15.10;99.90
7498;DHT22;3790;48.806;9.140;2023-10-08T23:54:54;15.10;99.90
7498;DHT22;3790;48.806;9.140;2023-10-08T23:59:57;15.10;99.90
